Flight Track Log - Related Links

Times and Time Zones

All times are in EDT time to prevent confusion due to time zone crossing. See the N333HC flight status page for this flight to view local times or setup timezone preferences in your user account.

Time Position Orientation Groundspeed Altitude Reporting Facility
EDT Latitude Longitude Course Direction KTS MPH feet Rate Location/Type
Sun 03:03:29 PM 34.0333 -84.1000 309° West 189 217 4,700  Level Atlanta TRACON
Sun 03:04:29 PM 34.0333 -84.1500 270° West 182 209 6,400 1,600 Climbing Atlanta TRACON
Sun 03:05:29 PM 34.0333 -84.2167 270° West 178 205 7,900 700 Climbing Atlanta TRACON
Sun 03:06:29 PM 34.0333 -84.2833 270° West 218 251 7,800 -50 Descending Atlanta TRACON
Sun 03:07:00 PM 33.8721 -84.4451 253° West  Level FlightAware Approximate
Sun 03:07:29 PM 34.0333 -84.3667 270° West 245 282 7,800  Level Atlanta TRACON
Sun 03:08:29 PM 34.0333 -84.4500 270° West 240 276 7,800 50 Level Atlanta TRACON
Sun 03:09:29 PM 34.0500 -84.5333 284° West 229 264 7,900 50 Climbing Atlanta TRACON
Sun 03:10:29 PM 34.0500 -84.6000 270° West 222 255 7,900  Level Atlanta TRACON
Sun 03:11:29 PM 34.0667 -84.6833 284° West 222 255 7,900  Level Atlanta TRACON
Sun 03:12:29 PM 34.0667 -84.7500 270° West 214 246 7,900  Level Atlanta TRACON
Sun 03:13:29 PM 34.0500 -84.8167 253° West 210 242 7,900  Level Atlanta TRACON
Sun 03:14:29 PM 34.0333 -84.8667 248° West 183 211 7,900 700 Level Atlanta TRACON
Sun 03:15:29 PM 34.0000 -84.9167 231° Southwest 167 192 9,300 942 Climbing Atlanta TRACON
Sun 03:16:30 PM 33.9500 -84.9500 209° Southwest 194 223 9,800 270 Climbing Atlanta TRACON
Sun 03:17:20 PM 33.9222 -84.9875 228° Southwest 218 251 9,800 -55 Level Atlanta Center
Sun 03:18:20 PM 33.8694 -85.0369 218° Southwest 243 280 9,700 300 Descending Atlanta Center
Sun 03:19:20 PM 33.8189 -85.0889 220° Southwest 243 280 10,400 550 Climbing Atlanta Center
Sun 03:20:20 PM 33.7892 -85.1561 242° Southwest 227 261 10,800 200 Climbing Atlanta Center
Sun 03:21:20 PM 33.7614 -85.2331 247° West 237 273 10,800 250 Level Atlanta Center
Sun 03:22:20 PM 33.7333 -85.3078 246° West 249 287 11,300 1,250 Climbing Atlanta Center
Sun 03:23:20 PM 33.7222 -85.3800 260° West 232 267 13,300 1,800 Climbing Atlanta Center
Sun 03:24:20 PM 33.7133 -85.4372 259° West 196 226 14,900 1,450 Climbing Atlanta Center
Sun 03:25:20 PM 33.7375 -85.5003 295° West 184 212 16,200 1,400 Climbing Atlanta Center
Sun 03:26:20 PM 33.7514 -85.5603 286° West 196 226 17,700 1,250 Climbing Atlanta Center
Sun 03:27:20 PM 33.7361 -85.6225 254° West 183 211 18,700 1,000 Climbing Atlanta Center
Sun 03:28:20 PM 33.7228 -85.6822 255° West 188 216 19,700 650 Climbing Atlanta Center
Sun 03:29:20 PM 33.7092 -85.7519 257° West 199 229 20,000 100 Climbing Atlanta Center
Sun 03:30:20 PM 33.6958 -85.8192 257° West 222 255 19,900 450 Descending Atlanta Center
Sun 03:31:20 PM 33.6925 -85.8989 267° West 236 272 20,900 900 Climbing Atlanta Center
Sun 03:32:20 PM 33.6872 -85.9661 265° West 229 264 21,700 700 Climbing Atlanta Center
Sun 03:33:20 PM 33.6822 -86.0333 265° West 218 251 22,300 800 Climbing Atlanta Center
Sun 03:34:20 PM 33.6706 -86.1031 259° West 213 245 23,300 900 Climbing Atlanta Center
Sun 03:35:20 PM 33.6611 -86.1678 260° West 213 245 24,100 750 Climbing Atlanta Center
Sun 03:36:20 PM 33.6514 -86.2375 261° West 218 251 24,800 700 Climbing Atlanta Center
Sun 03:37:20 PM 33.6397 -86.3044 258° West 218 251 25,500 550 Climbing Atlanta Center
Sun 03:38:20 PM 33.6303 -86.3742 261° West 218 251 25,900 250 Climbing Atlanta Center
Sun 03:39:20 PM 33.6142 -86.4533 256° West 224 258 26,000 50 Climbing Atlanta Center
Sun 03:40:20 PM 33.6000 -86.5328 258° West 240 276 26,000 -50 Level Atlanta Center
Sun 03:41:20 PM 33.5942 -86.6175 265° West 247 284 25,900  Descending Atlanta Center
Sun 03:42:20 PM 33.5900 -86.7047 267° West 254 292 26,000 600 Climbing Atlanta Center
Sun 03:43:20 PM 33.5864 -86.7842 267° West 254 292 27,100 950 Climbing Atlanta Center
Sun 03:44:20 PM 33.5847 -86.8567 268° West 238 274 27,900 450 Climbing Atlanta Center
Sun 03:45:20 PM 33.5808 -86.9286 266° West 225 259 28,000 50 Climbing Atlanta Center
Sun 03:46:20 PM 33.5894 -87.0064 278° West 225 259 28,000  Level Atlanta Center
Sun 03:47:20 PM 33.5978 -87.0889 277° West 242 278 28,000  Level Atlanta Center
Sun 03:48:20 PM 33.6042 -87.1714 275° West 247 284 28,000  Level Atlanta Center
Sun 03:49:20 PM 33.6125 -87.2567 277° West 253 291 28,000  Level Atlanta Center
Sun 03:51:33 PM 33.6336 -87.4481 278° West 269 310 28,000  Level Memphis Center
Sun 03:52:33 PM 33.6417 -87.5328 277° West 269 310 28,000 -50 Level Memphis Center
Sun 03:53:33 PM 33.6417 -87.6200 270° West 269 310 27,900  Descending Memphis Center
Sun 03:54:33 PM 33.6350 -87.7075 265° West 269 310 28,000 50 Climbing Memphis Center
Sun 03:55:33 PM 33.6328 -87.7925 268° West 269 310 28,000  Level Memphis Center
Sun 03:56:33 PM 33.6261 -87.8800 265° West 269 310 28,000  Level Memphis Center
Sun 03:57:33 PM 33.6236 -87.9647 268° West 269 310 28,000  Level Memphis Center
Sun 03:58:33 PM 33.6189 -88.0497 266° West 269 310 28,000  Level Memphis Center
Sun 03:59:33 PM 33.6144 -88.1422 267° West 264 304 28,000  Level Memphis Center
Sun 04:00:33 PM 33.6075 -88.2272 264° West 259 298 28,000 -50 Level Memphis Center
Sun 04:01:33 PM 33.5922 -88.3072 257° West 254 292 27,900  Descending Memphis Center
Sun 04:02:33 PM 33.5831 -88.3922 263° West 254 292 28,000 50 Climbing Memphis Center
Sun 04:03:33 PM 33.5803 -88.4797 268° West 254 292 28,000  Level Memphis Center
Sun 04:04:33 PM 33.5692 -88.5647 261° West 259 298 28,000  Level Memphis Center
Sun 04:05:33 PM 33.5431 -88.6450 249° West 259 298 28,000  Level Memphis Center
Sun 04:06:33 PM 33.5211 -88.7225 251° West 259 298 28,000  Level Memphis Center
Sun 04:07:33 PM 33.4950 -88.8053 249° West 259 298 28,000  Level Memphis Center
Sun 04:08:33 PM 33.4689 -88.8806 247° West 259 298 28,000  Level Memphis Center
Sun 04:09:33 PM 33.4428 -88.9606 249° West 259 298 28,000  Level Memphis Center
Sun 04:10:33 PM 33.4164 -89.0431 249° West 259 298 28,000  Level Memphis Center
Sun 04:11:33 PM 33.3922 -89.1231 250° West 259 298 28,000  Level Memphis Center
Sun 04:12:33 PM 33.3700 -89.2031 252° West 259 298 28,000  Level Memphis Center
Sun 04:13:33 PM 33.3478 -89.2731 249° West 259 298 28,000  Level Memphis Center
Sun 04:14:33 PM 33.3211 -89.3528 248° West 259 298 28,000  Level Memphis Center
Sun 04:15:33 PM 33.2969 -89.4353 251° West 259 298 28,000  Level Memphis Center
Sun 04:16:33 PM 33.2722 -89.5125 249° West 254 292 28,000  Level Memphis Center
Sun 04:17:33 PM 33.2500 -89.5947 252° West 254 292 28,000  Level Memphis Center
Sun 04:18:33 PM 33.2317 -89.6742 255° West 254 292 28,000  Level Memphis Center
Sun 04:19:33 PM 33.2217 -89.7589 262° West 254 292 28,000  Level Memphis Center
Sun 04:20:33 PM 33.2072 -89.8433 258° West 259 298 28,000  Level Memphis Center
Sun 04:21:33 PM 33.2036 -89.9303 267° West 259 298 28,000  Level Memphis Center
Sun 04:22:33 PM 33.1997 -90.0197 267° West 264 304 28,000  Level Memphis Center
Sun 04:23:33 PM 33.1936 -90.1164 266° West 269 310 28,000  Level Memphis Center
Sun 04:24:33 PM 33.1917 -90.2083 269° West 274 315 28,000  Level Memphis Center
Sun 04:25:33 PM 33.1856 -90.2953 265° West 274 315 28,000  Level Memphis Center
Sun 04:26:33 PM 33.1792 -90.3844 265° West 274 315 28,000  Level Memphis Center
Sun 04:27:33 PM 33.1750 -90.4714 267° West 274 315 28,000  Level Memphis Center
Sun 04:28:33 PM 33.1708 -90.5633 267° West 274 315 28,000  Level Memphis Center
Sun 04:29:33 PM 33.1664 -90.6500 267° West 274 315 28,000  Level Memphis Center
Sun 04:30:33 PM 33.1619 -90.7369 267° West 274 315 28,000  Level Memphis Center
Sun 04:31:33 PM 33.1575 -90.8286 267° West 274 315 28,000  Level Memphis Center
Sun 04:32:33 PM 33.1508 -90.9206 265° West 274 315 28,000  Level Memphis Center
Sun 04:33:33 PM 33.1461 -91.0097 266° West 274 315 28,000  Level Memphis Center
Sun 04:34:33 PM 33.1394 -91.1017 265° West 274 315 28,000  Level Memphis Center
Sun 04:35:33 PM 33.1369 -91.1883 268° West 274 315 28,000  Level Memphis Center
Sun 04:36:33 PM 33.1319 -91.2825 266° West 274 315 28,000  Level Memphis Center
Sun 04:37:33 PM 33.1272 -91.3619 266° West 279 321 28,000  Level Memphis Center
Sun 04:39:25 PM 33.1200 -91.5456 267° West 290 334 28,000  Level Fort Worth Center
Sun 04:40:25 PM 33.1114 -91.6303 263° West 284 327 28,000  Level Fort Worth Center
Sun 04:41:25 PM 33.1075 -91.7222 267° West 279 321 28,000  Level Fort Worth Center
Sun 04:42:26 PM 33.1006 -91.8044 264° West 270 311 28,000  Level Fort Worth Center
Sun 04:43:25 PM 33.1003 -91.8914 270° West 265 305 28,000  Level Fort Worth Center
Sun 04:44:25 PM 33.0958 -91.9808 267° West 265 305 28,000  Level Fort Worth Center
Sun 04:45:25 PM 33.0911 -92.0656 266° West 270 311 28,000  Level Fort Worth Center
Sun 04:46:25 PM 33.0825 -92.1578 264° West 275 316 28,000  Level Fort Worth Center
Sun 04:47:25 PM 33.0778 -92.2447 266° West 275 316 28,000  Level Fort Worth Center
Sun 04:48:25 PM 33.0731 -92.3317 266° West 275 316 28,000  Level Fort Worth Center
Sun 04:49:25 PM 33.0661 -92.4214 265° West 275 316 28,000  Level Fort Worth Center
Sun 04:50:25 PM 33.0572 -92.5086 263° West 275 316 28,000  Level Fort Worth Center
Sun 04:51:25 PM 33.0522 -92.5981 266° West 275 316 28,000  Level Fort Worth Center
Sun 04:52:25 PM 33.0472 -92.6850 266° West 275 316 28,000  Level Fort Worth Center
Sun 04:54:25 PM 33.0347 -92.8592 265° West 275 316 28,000  Level Fort Worth Center
Sun 04:55:25 PM 33.0294 -92.9436 266° West 275 316 28,000  Level Fort Worth Center
Sun 04:56:25 PM 33.0219 -93.0258 264° West 270 311 28,000  Level Fort Worth Center
Sun 04:57:25 PM 33.0167 -93.1128 266° West 270 311 28,000  Level Fort Worth Center
Sun 04:58:25 PM 33.0092 -93.1972 264° West 264 304 28,000  Level Fort Worth Center
Sun 04:59:25 PM 33.0036 -93.2819 266° West 264 304 28,000  Level Fort Worth Center
Sun 05:00:25 PM 32.9958 -93.3664 264° West 264 304 28,000  Level Fort Worth Center
Sun 05:01:25 PM 32.9903 -93.4508 266° West 258 297 28,000  Level Fort Worth Center
Sun 05:02:25 PM 32.9825 -93.5378 264° West 258 297 28,000  Level Fort Worth Center
Sun 05:03:25 PM 32.9767 -93.6247 265° West 258 297 28,000  Level Fort Worth Center
Sun 05:04:25 PM 32.9706 -93.6992 264° West 258 297 28,000  Level Fort Worth Center
Sun 05:05:25 PM 32.9606 -93.7864 262° West 258 297 28,000  Level Fort Worth Center
Sun 05:06:26 PM 32.9567 -93.8706 267° West 258 297 28,000  Level Fort Worth Center
Sun 05:07:25 PM 32.9508 -93.9575 265° West 258 297 28,000  Level Fort Worth Center
Sun 05:08:25 PM 32.9428 -94.0419 264° West 258 297 28,000  Level Fort Worth Center
Sun 05:09:25 PM 32.9344 -94.1289 264° West 258 297 28,000  Level Fort Worth Center
Sun 05:10:25 PM 32.9306 -94.2133 267° West 258 297 28,000  Level Fort Worth Center
Sun 05:11:25 PM 32.9222 -94.3000 263° West 258 297 28,000  Level Fort Worth Center
Sun 05:12:25 PM 32.9139 -94.3844 263° West 258 297 28,000  Level Fort Worth Center
Sun 05:13:25 PM 32.9075 -94.4714 265° West 258 297 28,000  Level Fort Worth Center
Sun 05:14:25 PM 32.8992 -94.5583 264° West 258 297 28,000  Level Fort Worth Center
Sun 05:15:26 PM 32.8928 -94.6425 265° West 258 297 28,000  Level Fort Worth Center
Sun 05:16:25 PM 32.8861 -94.7317 265° West 258 297 28,000  Level Fort Worth Center
Sun 05:17:25 PM 32.8775 -94.8186 263° West 263 303 28,000  Level Fort Worth Center
Sun 05:18:26 PM 32.8731 -94.9053 267° West 263 303 28,000  Level Fort Worth Center
Sun 05:19:25 PM 32.8622 -94.9922 262° West 263 303 28,000  Level Fort Worth Center
Sun 05:20:25 PM 32.8556 -95.0814 265° West 268 308 28,000  Level Fort Worth Center
Sun 05:21:26 PM 32.8489 -95.1656 265° West 268 308 28,000  Level Fort Worth Center
Sun 05:22:25 PM 32.8378 -95.2550 262° West 273 314 28,000  Level Fort Worth Center
Sun 05:23:25 PM 32.8353 -95.3514 268° West 273 314 28,000  Level Fort Worth Center
Sun 05:24:26 PM 32.8222 -95.4408 260° West 273 314 28,000  Level Fort Worth Center
Sun 05:25:25 PM 32.8172 -95.5272 266° West 273 314 28,000  Level Fort Worth Center
Sun 05:26:25 PM 32.8081 -95.6189 263° West 273 314 28,000  Level Fort Worth Center
Sun 05:27:25 PM 32.8008 -95.7056 264° West 273 314 28,000  Level Fort Worth Center
Sun 05:28:25 PM 32.7939 -95.7947 265° West 273 314 28,000  Level Fort Worth Center
Sun 05:29:25 PM 32.7844 -95.8839 263° West 273 314 28,000  Level Fort Worth Center
Sun 05:30:25 PM 32.7750 -95.9756 263° West 273 314 28,000  Level Fort Worth Center
Sun 05:31:25 PM 32.7656 -96.0669 263° West 273 314 28,000  Level Fort Worth Center
Sun 05:32:25 PM 32.7583 -96.1561 265° West 279 321 28,000  Level Fort Worth Center
Sun 05:33:25 PM 32.7486 -96.2475 263° West 279 321 28,000  Level Fort Worth Center
Sun 05:34:25 PM 32.7392 -96.3392 263° West 279 321 28,000  Level Fort Worth Center
Sun 05:35:25 PM 32.7314 -96.4256 264° West 274 315 28,000  Level Fort Worth Center
Sun 05:36:25 PM 32.7217 -96.5144 263° West 274 315 28,000  Level Fort Worth Center
Sun 05:37:25 PM 32.7117 -96.6061 263° West 274 315 28,000  Level Fort Worth Center
Sun 05:38:25 PM 32.7039 -96.6975 264° West 274 315 28,000  Level Fort Worth Center
Sun 05:39:26 PM 32.6942 -96.7864 263° West 274 315 28,000  Level Fort Worth Center
Sun 05:40:25 PM 32.6839 -96.8778 262° West 274 315 28,000  Level Fort Worth Center
Sun 05:41:25 PM 32.6761 -96.9717 264° West 274 315 28,000  Level Fort Worth Center
Sun 05:42:25 PM 32.6658 -97.0606 262° West 279 321 28,000  Level Fort Worth Center
Sun 05:43:25 PM 32.6536 -97.1519 261° West 279 321 28,000  Level Fort Worth Center
Sun 05:44:25 PM 32.6453 -97.2333 263° West 279 321 28,000 -50 Level Fort Worth Center
Sun 05:45:25 PM 32.6372 -97.3272 264° West 279 321 27,900  Descending Fort Worth Center
Sun 05:46:25 PM 32.6289 -97.4208 264° West 279 321 28,000 50 Climbing Fort Worth Center
Sun 05:47:25 PM 32.6183 -97.5097 262° West 279 321 28,000  Level Fort Worth Center
Sun 05:48:25 PM 32.6097 -97.6033 264° West 284 327 28,000  Level Fort Worth Center
Sun 05:49:25 PM 32.5992 -97.6969 262° West 284 327 28,000  Level Fort Worth Center
Sun 05:50:25 PM 32.5906 -97.7883 264° West 289 333 28,000  Level Fort Worth Center
Sun 05:51:25 PM 32.5800 -97.8794 262° West 289 333 28,000  Level Fort Worth Center
Sun 05:52:25 PM 32.5692 -97.9731 262° West 289 333 28,000  Level Fort Worth Center
Sun 05:53:25 PM 32.5581 -98.0667 262° West 289 333 28,000 -50 Level Fort Worth Center
Sun 05:54:25 PM 32.5472 -98.1603 262° West 289 333 27,900  Descending Fort Worth Center
Sun 05:55:25 PM 32.5383 -98.2514 263° West 289 333 28,000 50 Climbing Fort Worth Center
Sun 05:56:25 PM 32.5272 -98.3422 262° West 289 333 28,000  Level Fort Worth Center
Sun 05:57:26 PM 32.5203 -98.4383 265° West 289 333 28,000  Level Fort Worth Center
Sun 05:58:25 PM 32.5028 -98.5342 258° West 289 333 28,000  Level Fort Worth Center
Sun 05:59:25 PM 32.4914 -98.6153 261° West 289 333 28,000  Level Fort Worth Center
Sun 06:00:25 PM 32.4842 -98.7089 265° West 284 327 28,000  Level Fort Worth Center
Sun 06:01:25 PM 32.4708 -98.7972 260° West 284 327 28,000  Level Fort Worth Center
Sun 06:02:25 PM 32.4614 -98.8883 263° West 284 327 28,000  Level Fort Worth Center
Sun 06:03:25 PM 32.4519 -98.9792 263° West 284 327 28,000  Level Fort Worth Center
Sun 06:04:25 PM 32.4383 -99.0725 260° West 284 327 28,000  Level Fort Worth Center
Sun 06:05:25 PM 32.4286 -99.1633 263° West 284 327 28,000  Level Fort Worth Center
Sun 06:06:25 PM 32.4169 -99.2542 261° West 284 327 28,000  Level Fort Worth Center
Sun 06:07:25 PM 32.4050 -99.3475 261° West 284 327 28,000  Level Fort Worth Center
Sun 06:08:25 PM 32.3931 -99.4408 261° West 294 338 28,000  Level Fort Worth Center
Sun 06:09:25 PM 32.3833 -99.5314 263° West 294 338 28,000  Level Fort Worth Center
Sun 06:10:25 PM 32.3711 -99.6272 261° West 294 338 28,000  Level Fort Worth Center
Sun 06:11:25 PM 32.3592 -99.7178 261° West 294 338 28,000  Level Fort Worth Center
Sun 06:12:25 PM 32.3469 -99.8133 261° West 294 338 28,000  Level Fort Worth Center
Sun 06:13:25 PM 32.3347 -99.9067 261° West 294 338 28,000  Level Fort Worth Center
Sun 06:14:25 PM 32.3244 -99.9997 263° West 294 338 28,000 -150 Level Fort Worth Center
Sun 06:15:25 PM 32.3100 -100.0928 260° West 294 338 27,700 -650 Descending Fort Worth Center
Sun 06:16:25 PM 32.2994 -100.1906 263° West 300 345 26,700 -1,000 Descending Fort Worth Center
Sun 06:17:25 PM 32.2869 -100.2886 261° West 300 345 25,700 -942 Descending Fort Worth Center
Sun 06:18:26 PM 32.2739 -100.3961 262° West 300 345 24,800 -1,000 Descending Fort Worth Center
Sun 06:19:25 PM 32.2592 -100.4917 260° West 305 351 23,700 -1,160 Descending Fort Worth Center
Sun 06:20:25 PM 32.2461 -100.5942 261° West 310 357 22,500 -1,200 Descending Fort Worth Center
Sun 06:21:25 PM 32.2350 -100.6947 263° West 315 362 21,300 -1,200 Descending Fort Worth Center
Sun 06:22:25 PM 32.2222 -100.7922 261° West 315 362 20,100 -1,200 Descending Fort Worth Center
Sun 06:23:25 PM 32.2089 -100.8900 261° West 315 362 18,900 -1,240 Descending Fort Worth Center
Sun 06:24:26 PM 32.1936 -100.9900 260° West 315 362 17,600 -1,200 Descending Fort Worth Center
Sun 06:25:25 PM 32.1825 -101.0878 262° West 315 362 16,500 -1,160 Descending Fort Worth Center
Sun 06:26:25 PM 32.1697 -101.1708 260° West 309 356 15,300 -1,150 Descending Fort Worth Center
Sun 06:27:25 PM 32.1583 -101.2661 262° West 303 349 14,200 -700 Descending Fort Worth Center
Sun 06:28:25 PM 32.1453 -101.3536 260° West 291 335 13,900 -150 Descending Fort Worth Center
Sun 06:29:25 PM 32.1342 -101.4342 261° West 270 311 13,900  Level Fort Worth Center
Sun 06:30:25 PM 32.1256 -101.5122 263° West 249 287 13,900 -200 Level Fort Worth Center
Sun 06:31:25 PM 32.1125 -101.5903 259° West 244 281 13,500 -1,000 Descending Fort Worth Center
Sun 06:32:25 PM 32.1014 -101.6756 261° West 257 296 11,900 -1,600 Descending Fort Worth Center
Sun 06:33:25 PM 32.0878 -101.7631 260° West 263 303 10,300 -1,600 Descending Fort Worth Center
Sun 06:34:25 PM 32.0767 -101.8436 261° West 263 303 8,700 -1,850 Descending Fort Worth Center
Sun 06:35:25 PM 32.0697 -101.9239 264° West 258 297 6,600 -2,000 Descending Fort Worth Center
Sun 06:36:25 PM 32.0731 -102.0050 273° West 253 291 4,700 -1,400 Descending Fort Worth Center
Sun 06:37:25 PM 32.0744 -102.0811 271° West 253 291 3,800 -700 Descending Fort Worth Center
Sun 06:38:25 PM 32.0558 -102.1267 244° Southwest 226 260 3,300 -500 Descending Fort Worth Center
Sun 06:44:00 PM 32.0333 -102.1000 84° East  Level FlightAware Approximate
Sun 06:51:00 PM 32.0365 -102.1010 84° East  Level Estimated

Login

Don't have an account? Register now (free) for customized features, flight alerts, and more!